Time;durP1;ratioP1;P1;durP2;ratioP2;P2;SDS_P1;SDS_P2;PMS_P1;PMS_P2;Temp;Humidity;BMP_temperature;BMP_pressure;BME280_temperature;BME280_humidity;BME280_pressure;Samples;Min_cycle;Max_cycle;Signal;HPM_P1;HPM_P2
2022/01/18 00:00:07;;;;;;;7.68;2.95;;;0.20;99.90;;;;;;4904189;29;20041;-94
2022/01/18 00:02:33;;;;;;;5.03;3.20;;;0.20;99.90;;;;;;4887976;29;20028;-93
2022/01/18 00:04:59;;;;;;;8.30;3.63;;;0.20;99.90;;;;;;4887206;29;20360;-94
2022/01/18 00:07:25;;;;;;;5.60;3.20;;;0.20;99.90;;;;;;4885872;29;20041;-93
2022/01/18 00:09:50;;;;;;;15.43;6.10;;;0.20;99.90;;;;;;4885666;29;20028;-94
2022/01/18 00:15:39;;;;;;;27.67;10.20;;;0.10;99.90;;;;;;4913195;29;20055;-92
2022/01/18 00:20:43;;;;;;;29.92;11.27;;;-0.10;99.90;;;;;;4903296;29;20033;-94
2022/01/18 00:23:10;;;;;;;25.80;9.48;;;-0.10;99.90;;;;;;4885422;29;20494;-93
2022/01/18 00:25:39;;;;;;;25.08;9.13;;;-0.20;99.90;;;;;;4888404;29;20081;-93
2022/01/18 00:28:06;;;;;;;17.38;6.07;;;-0.20;99.90;;;;;;4885260;29;20041;-93
2022/01/18 00:33:36;;;;;;;7.22;3.78;;;-0.20;99.90;;;;;;4901817;29;20498;-93
2022/01/18 00:36:11;;;;;;;8.20;3.67;;;-0.20;99.90;;;;;;4913202;29;20051;-93
2022/01/18 00:41:25;;;;;;;7.50;3.15;;;-0.20;99.90;;;;;;4916929;29;20115;-94
2022/01/18 00:43:53;;;;;;;7.22;3.40;;;-0.30;99.90;;;;;;4897890;29;20025;-95
2022/01/18 00:46:23;;;;;;;5.32;2.97;;;-0.30;99.90;;;;;;4895965;29;20133;-94
2022/01/18 00:48:52;;;;;;;12.13;5.78;;;-0.30;99.90;;;;;;4897581;29;20093;-94
2022/01/18 00:51:19;;;;;;;18.63;7.43;;;-0.20;99.90;;;;;;4895520;29;20035;-95
2022/01/18 00:53:46;;;;;;;14.88;6.53;;;-0.30;99.90;;;;;;4896122;29;20063;-94
2022/01/18 00:58:43;;;;;;;10.77;5.25;;;-0.30;99.90;;;;;;4907702;29;20044;-93
2022/01/18 01:01:10;;;;;;;15.20;6.85;;;-0.40;99.90;;;;;;4890057;29;20033;-93
2022/01/18 01:03:37;;;;;;;16.05;6.50;;;-0.40;99.90;;;;;;4890073;29;20054;-94
2022/01/18 01:06:04;;;;;;;15.88;5.75;;;-0.40;99.90;;;;;;4889024;29;20032;-93
2022/01/18 01:08:31;;;;;;;10.25;4.93;;;-0.50;99.90;;;;;;4889972;29;20040;-94
2022/01/18 01:11:00;;;;;;;7.97;3.85;;;-0.40;99.90;;;;;;4886606;29;20041;-94
2022/01/18 01:13:31;;;;;;;5.22;2.22;;;-0.50;99.90;;;;;;4874703;29;20044;-96
2022/01/18 01:16:41;;;;;;;5.00;2.20;;;-0.50;99.90;;;;;;4878483;29;20063;-93
2022/01/18 01:45:11;;;;;;;8.88;3.50;;;-0.60;99.90;;;;;;4891760;29;20040;-94
2022/01/18 01:47:38;;;;;;;8.43;2.67;;;-0.60;99.90;;;;;;4874664;29;20132;-93
2022/01/18 01:50:18;;;;;;;7.65;3.33;;;-0.60;99.90;;;;;;4892856;29;20033;-95
2022/01/18 01:52:45;;;;;;;6.20;2.78;;;-0.60;99.90;;;;;;4874767;29;20044;-95
2022/01/18 01:55:11;;;;;;;7.07;2.67;;;-0.60;99.90;;;;;;4870082;29;20021;-94
2022/01/18 01:57:37;;;;;;;6.20;2.47;;;-0.60;99.90;;;;;;4873119;29;20040;-94
2022/01/18 02:00:10;;;;;;;5.32;2.42;;;-0.60;99.90;;;;;;4874034;29;20069;-95
2022/01/18 02:02:36;;;;;;;14.27;5.53;;;-0.70;99.90;;;;;;4872990;29;20040;-94
2022/01/18 02:05:04;;;;;;;13.18;4.38;;;-0.70;99.90;;;;;;4857165;29;20037;-95
2022/01/18 02:07:30;;;;;;;10.90;4.85;;;-0.70;99.90;;;;;;4870629;29;20037;-94
2022/01/18 02:09:57;;;;;;;13.07;4.00;;;-0.80;99.90;;;;;;4871531;29;20037;-94
2022/01/18 02:12:23;;;;;;;6.45;3.63;;;-0.80;99.90;;;;;;4888659;29;20112;-92
2022/01/18 02:14:58;;;;;;;7.05;3.55;;;-0.80;99.90;;;;;;4891422;29;20089;-95
2022/01/18 02:22:57;;;;;;;7.75;2.80;;;-0.80;99.90;;;;;;4912426;29;20039;-94
2022/01/18 02:25:24;;;;;;;6.15;2.90;;;-0.80;99.90;;;;;;4890829;29;20040;-95
2022/01/18 02:27:50;;;;;;;8.45;3.38;;;-0.90;99.90;;;;;;4891315;29;20041;-94
2022/01/18 02:30:16;;;;;;;4.45;2.80;;;-0.90;99.90;;;;;;4890006;29;20055;-93
2022/01/18 02:32:41;;;;;;;2.85;2.10;;;-0.90;99.90;;;;;;4890650;29;20032;-93
2022/01/18 02:35:08;;;;;;;3.45;2.17;;;-0.90;99.90;;;;;;4888387;29;20051;-93
2022/01/18 02:37:33;;;;;;;6.65;3.47;;;-0.90;99.90;;;;;;4887701;29;20033;-93
2022/01/18 02:39:59;;;;;;;7.22;3.58;;;-0.90;99.90;;;;;;4888728;29;20500;-94
2022/01/18 02:42:40;;;;;;;5.95;2.72;;;-0.90;99.90;;;;;;4890601;29;20040;-93
2022/01/18 02:45:09;;;;;;;7.40;2.58;;;-0.90;99.90;;;;;;4892228;29;20107;-95
2022/01/18 02:47:34;;;;;;;5.38;2.28;;;-0.90;99.90;;;;;;4889331;29;20052;-94
2022/01/18 02:50:00;;;;;;;5.60;2.58;;;-0.90;99.90;;;;;;4887411;29;20024;-94
2022/01/18 02:52:26;;;;;;;3.95;2.47;;;-1.00;99.90;;;;;;4887201;29;20044;-95
2022/01/18 02:54:51;;;;;;;4.90;2.17;;;-0.90;99.90;;;;;;4887401;29;20029;-95
2022/01/18 02:57:26;;;;;;;8.63;2.53;;;-1.00;99.90;;;;;;4890022;29;20033;-94
2022/01/18 03:00:08;;;;;;;4.65;2.53;;;-1.00;99.90;;;;;;4885909;29;20084;-95
2022/01/18 03:05:18;;;;;;;8.30;2.90;;;-1.00;99.90;;;;;;4901824;29;20060;-93
2022/01/18 03:07:44;;;;;;;5.60;2.63;;;-1.00;99.90;;;;;;4884637;29;20033;-93
2022/01/18 03:10:13;;;;;;;3.67;2.20;;;-1.00;99.90;;;;;;4884769;29;20081;-96
2022/01/18 03:12:39;;;;;;;6.38;2.75;;;-1.10;99.90;;;;;;4893313;29;20047;-93
2022/01/18 03:15:06;;;;;;;6.93;3.45;;;-1.10;99.90;;;;;;4886264;29;20078;-93
2022/01/18 03:17:32;;;;;;;9.65;4.40;;;-1.10;99.90;;;;;;4885161;29;20032;-94
2022/01/18 03:19:57;;;;;;;10.70;4.90;;;-1.10;99.90;;;;;;4893019;29;20040;-94
2022/01/18 03:22:24;;;;;;;10.05;4.75;;;-1.20;99.90;;;;;;4894219;29;20050;-94
2022/01/18 03:25:02;;;;;;;8.52;5.10;;;-1.20;99.90;;;;;;4890993;29;20028;-94
2022/01/18 03:30:13;;;;;;;7.28;3.33;;;-1.20;99.90;;;;;;4894075;29;20115;-94
2022/01/18 03:32:39;;;;;;;5.53;2.65;;;-1.30;99.90;;;;;;4884558;29;20040;-95
2022/01/18 03:35:07;;;;;;;7.55;3.60;;;-1.30;99.90;;;;;;4868263;29;20040;-93
2022/01/18 03:37:33;;;;;;;15.60;4.32;;;-1.30;99.90;;;;;;4884085;29;20028;-93
2022/01/18 03:39:59;;;;;;;6.80;2.67;;;-1.30;99.90;;;;;;4884620;29;20032;-93
2022/01/18 03:44:56;;;;;;;9.77;4.40;;;-1.30;99.90;;;;;;4900819;29;20048;-92
2022/01/18 03:47:22;;;;;;;11.50;4.50;;;-1.30;99.90;;;;;;4883216;29;20096;-94
2022/01/18 03:49:48;;;;;;;4.55;2.85;;;-1.30;99.90;;;;;;4883458;29;20032;-92
2022/01/18 03:52:14;;;;;;;4.82;3.25;;;-1.30;99.90;;;;;;4883260;29;20147;-93
2022/01/18 03:54:44;;;;;;;9.35;3.53;;;-1.40;99.90;;;;;;4883648;29;20040;-94
2022/01/18 03:57:10;;;;;;;8.23;2.80;;;-1.30;99.90;;;;;;4883060;29;20033;-93
2022/01/18 03:59:36;;;;;;;5.00;3.45;;;-1.30;99.90;;;;;;4883724;29;20059;-93
2022/01/18 04:02:02;;;;;;;10.35;4.22;;;-1.40;99.90;;;;;;4883858;29;20043;-94
2022/01/18 04:04:28;;;;;;;13.13;4.55;;;-1.40;99.90;;;;;;4883474;29;20036;-93
2022/01/18 04:06:53;;;;;;;13.20;5.50;;;-1.40;99.90;;;;;;4884070;29;20032;-94
2022/01/18 04:09:20;;;;;;;6.18;3.83;;;-1.50;99.90;;;;;;4883289;29;20041;-93
2022/01/18 04:11:46;;;;;;;7.03;3.78;;;-1.50;99.90;;;;;;4883120;29;20067;-93
2022/01/18 04:14:12;;;;;;;4.97;3.47;;;-1.50;99.90;;;;;;4884474;29;20037;-92
2022/01/18 04:16:54;;;;;;;5.90;3.17;;;-1.60;99.90;;;;;;4883257;29;20084;-92
2022/01/18 04:27:39;;;;;;;5.55;2.60;;;-1.60;99.90;;;;;;4909263;29;20051;-94
2022/01/18 04:30:05;;;;;;;;;;;-1.60;99.90;;;;;;4883417;29;20043;-93
2022/01/18 04:32:31;;;;;;;7.18;3.20;;;-1.60;99.90;;;;;;4898604;29;20337;-93
2022/01/18 04:34:57;;;;;;;7.53;3.22;;;-1.60;99.90;;;;;;4867413;29;20037;-92
2022/01/18 04:37:23;;;;;;;10.15;3.20;;;-1.60;99.90;;;;;;4882974;29;20136;-92
2022/01/18 04:39:49;;;;;;;7.82;3.45;;;-1.60;99.90;;;;;;4883528;29;20029;-93
2022/01/18 04:42:42;;;;;;;10.23;4.60;;;-1.60;99.90;;;;;;4882952;29;20032;-95
2022/01/18 04:50:37;;;;;;;9.10;5.05;;;-1.70;99.90;;;;;;4886253;29;20083;-91
2022/01/18 04:53:03;;;;;;;8.77;4.05;;;-1.70;99.90;;;;;;4886889;29;20028;-93
2022/01/18 04:55:32;;;;;;;10.38;4.40;;;-1.80;99.90;;;;;;4889091;29;20045;-93
2022/01/18 04:57:58;;;;;;;11.90;5.57;;;-1.80;99.90;;;;;;4882766;29;20029;-93
2022/01/18 05:00:25;;;;;;;7.07;4.00;;;-1.80;99.90;;;;;;4883053;29;20399;-94
2022/01/18 05:02:51;;;;;;;9.63;4.30;;;-1.80;99.90;;;;;;4882819;29;20025;-93
2022/01/18 05:05:30;;;;;;;9.02;4.07;;;-1.80;99.90;;;;;;4882506;29;20483;-92
2022/01/18 05:07:59;;;;;;;9.02;4.40;;;-1.80;99.90;;;;;;4882515;29;20044;-92
2022/01/18 05:10:28;;;;;;;9.98;4.32;;;-1.90;99.90;;;;;;4883031;29;20049;-95
2022/01/18 05:12:56;;;;;;;8.27;3.80;;;-1.80;99.90;;;;;;4883084;29;20039;-94
2022/01/18 05:21:14;;;;;;;5.40;2.75;;;-1.90;99.90;;;;;;4896763;29;20040;-94
2022/01/18 05:23:23;;;;;;;6.18;3.25;;;-1.90;99.90;;;;;;4898905;29;20459;-92
2022/01/18 05:25:48;;;;;;;5.53;3.30;;;-1.90;99.90;;;;;;4902103;29;20073;-92
2022/01/18 05:28:14;;;;;;;7.90;3.67;;;-1.90;99.90;;;;;;4899055;29;20052;-92
2022/01/18 05:30:41;;;;;;;11.55;5.90;;;-1.90;99.90;;;;;;4896008;29;20028;-91
2022/01/18 05:33:07;;;;;;;7.28;3.70;;;-1.90;99.90;;;;;;4895596;29;20032;-92
2022/01/18 05:35:36;;;;;;;8.82;4.90;;;-2.00;99.90;;;;;;4888438;29;20111;-93
2022/01/18 05:38:02;;;;;;;11.73;5.93;;;-2.00;99.90;;;;;;4888658;29;20024;-93
2022/01/18 05:40:28;;;;;;;13.98;6.00;;;-2.00;99.90;;;;;;4885750;29;20105;-92
2022/01/18 05:42:53;;;;;;;16.10;6.13;;;-2.00;99.90;;;;;;4866879;29;20380;-92
2022/01/18 05:45:20;;;;;;;11.30;3.55;;;-2.00;99.90;;;;;;4868092;29;20463;-94
2022/01/18 05:47:46;;;;;;;8.93;3.83;;;-2.00;99.90;;;;;;4875588;29;20108;-94
2022/01/18 05:50:13;;;;;;;8.57;3.35;;;-2.10;99.90;;;;;;4874278;29;20036;-93
2022/01/18 05:52:39;;;;;;;4.47;3.13;;;-2.00;99.90;;;;;;4872745;29;20029;-94
2022/01/18 05:55:06;;;;;;;7.57;3.00;;;-2.00;99.90;;;;;;4867867;29;20025;-94
2022/01/18 05:57:32;;;;;;;4.28;2.47;;;-2.10;99.90;;;;;;4866743;29;20150;-91
2022/01/18 06:00:04;;;;;;;4.55;2.80;;;-2.00;99.90;;;;;;4866329;29;20033;-91
2022/01/18 06:07:40;;;;;;;4.95;3.40;;;-2.00;99.90;;;;;;4884242;29;20506;-92
2022/01/18 06:10:06;;;;;;;6.22;2.72;;;-2.00;99.90;;;;;;4865309;29;20116;-91
2022/01/18 06:12:32;;;;;;;6.43;2.88;;;-2.00;99.90;;;;;;4865042;29;20049;-91
2022/01/18 06:14:58;;;;;;;11.27;4.25;;;-2.00;99.90;;;;;;4865420;29;20120;-91
2022/01/18 06:17:25;;;;;;;9.73;4.07;;;-2.10;99.90;;;;;;4865302;29;20149;-92
2022/01/18 06:19:51;;;;;;;13.45;6.38;;;-2.10;99.90;;;;;;4865719;29;20560;-93
2022/01/18 06:22:16;;;;;;;13.23;5.53;;;-2.10;99.90;;;;;;4865312;29;20025;-91
2022/01/18 06:24:42;;;;;;;8.00;3.80;;;-2.10;99.90;;;;;;4864849;29;20395;-92
2022/01/18 06:27:09;;;;;;;9.32;4.28;;;-2.20;99.90;;;;;;4864897;29;20029;-93
2022/01/18 06:29:36;;;;;;;13.73;6.35;;;-2.20;99.90;;;;;;4865410;29;20030;-92
2022/01/18 06:32:04;;;;;;;16.13;6.25;;;-2.20;99.90;;;;;;4865670;29;20234;-92
2022/01/18 06:34:29;;;;;;;11.13;4.65;;;-2.20;99.90;;;;;;4866413;29;20036;-92
2022/01/18 06:36:55;;;;;;;11.77;5.60;;;-2.20;99.90;;;;;;4873760;29;20029;-92
2022/01/18 06:39:21;;;;;;;15.63;5.57;;;-2.30;99.90;;;;;;4865555;29;20044;-91
2022/01/18 06:41:47;;;;;;;9.00;4.18;;;-2.30;99.90;;;;;;4865201;29;20097;-91
2022/01/18 06:44:13;;;;;;;9.80;4.60;;;-2.30;99.90;;;;;;4864471;29;20124;-92
2022/01/18 06:46:39;;;;;;;9.80;4.20;;;-2.30;99.90;;;;;;4864414;29;20048;-92
2022/01/18 06:49:05;;;;;;;9.65;4.88;;;-2.30;99.90;;;;;;4864208;29;20522;-92
2022/01/18 06:51:32;;;;;;;9.07;4.47;;;-2.30;99.90;;;;;;4863875;29;20032;-91
2022/01/18 06:53:58;;;;;;;13.57;5.40;;;-2.20;99.90;;;;;;4864202;29;20041;-92
2022/01/18 06:56:26;;;;;;;16.15;7.38;;;-2.30;99.90;;;;;;4863803;29;20037;-92
2022/01/18 06:58:53;;;;;;;10.82;6.28;;;-2.30;99.90;;;;;;4863909;29;20037;-91
2022/01/18 07:01:19;;;;;;;12.20;6.38;;;-2.30;99.90;;;;;;4863749;29;20502;-92
2022/01/18 07:03:45;;;;;;;18.05;7.50;;;-2.30;99.90;;;;;;4863943;29;20025;-92
2022/01/18 07:06:11;;;;;;;12.30;5.82;;;-2.30;99.90;;;;;;4863797;29;20523;-92
2022/01/18 07:08:37;;;;;;;11.65;4.90;;;-2.30;99.90;;;;;;4864037;29;20137;-92
2022/01/18 07:11:03;;;;;;;17.27;6.35;;;-2.30;99.90;;;;;;4863522;29;20071;-92
2022/01/18 07:13:29;;;;;;;17.00;6.70;;;-2.40;99.90;;;;;;4863771;29;20033;-92
2022/01/18 07:15:55;;;;;;;16.55;7.15;;;-2.40;99.90;;;;;;4863776;29;20077;-92
2022/01/18 07:18:20;;;;;;;18.88;7.60;;;-2.40;99.90;;;;;;4863627;29;20063;-92
2022/01/18 07:20:46;;;;;;;20.40;7.65;;;-2.40;99.90;;;;;;4863944;29;20064;-93
2022/01/18 07:23:13;;;;;;;20.73;7.55;;;-2.40;99.90;;;;;;4863861;29;20482;-92
2022/01/18 07:25:45;;;;;;;16.80;7.45;;;-2.40;99.90;;;;;;4863611;29;20495;-91
2022/01/18 07:28:12;;;;;;;11.90;4.93;;;-2.50;99.90;;;;;;4863619;29;20061;-91
2022/01/18 07:30:39;;;;;;;10.68;5.13;;;-2.40;99.90;;;;;;4872104;29;20089;-92
2022/01/18 07:33:05;;;;;;;14.00;5.28;;;-2.50;99.90;;;;;;4881477;29;20052;-91
2022/01/18 07:35:33;;;;;;;15.55;7.45;;;-2.50;99.90;;;;;;4884215;29;20040;-92
2022/01/18 07:38:00;;;;;;;19.52;7.57;;;-2.50;99.90;;;;;;4881806;29;20542;-90
2022/01/18 07:40:27;;;;;;;17.33;8.60;;;-2.50;99.90;;;;;;4876740;29;20028;-90
2022/01/18 07:42:54;;;;;;;19.98;7.25;;;-2.50;99.90;;;;;;4881401;29;20033;-93
2022/01/18 07:45:20;;;;;;;16.75;6.05;;;-2.50;99.90;;;;;;4891435;29;20085;-91
2022/01/18 07:47:46;;;;;;;16.52;7.43;;;-2.50;99.90;;;;;;4886560;29;20083;-93
2022/01/18 07:50:12;;;;;;;17.20;7.35;;;-2.50;99.90;;;;;;4882298;29;20033;-92
2022/01/18 07:52:37;;;;;;;19.15;7.93;;;-2.50;99.90;;;;;;4881260;29;20135;-92
2022/01/18 07:55:05;;;;;;;21.98;9.07;;;-2.40;99.90;;;;;;4889452;29;20561;-92
2022/01/18 07:57:31;;;;;;;15.93;6.47;;;-2.40;99.90;;;;;;4892213;29;20035;-91
2022/01/18 07:59:56;;;;;;;24.65;7.75;;;-2.40;99.90;;;;;;4886137;29;20024;-92
2022/01/18 08:02:23;;;;;;;21.85;7.95;;;-2.50;99.90;;;;;;4883679;29;20804;-90
2022/01/18 08:04:48;;;;;;;14.95;6.97;;;-2.50;99.90;;;;;;4888282;29;20024;-90
2022/01/18 08:07:14;;;;;;;17.63;7.78;;;-2.50;99.90;;;;;;4889893;29;20032;-91
2022/01/18 08:09:45;;;;;;;16.83;7.65;;;-2.50;99.90;;;;;;4890191;29;20032;-92
2022/01/18 08:12:14;;;;;;;13.80;6.97;;;-2.40;99.90;;;;;;4885804;29;20139;-92
2022/01/18 08:14:45;;;;;;;16.80;7.80;;;-2.40;99.90;;;;;;4890862;29;20028;-92
2022/01/18 08:17:11;;;;;;;14.48;7.47;;;-2.40;99.90;;;;;;4892670;29;20029;-93
2022/01/18 08:19:37;;;;;;;16.35;8.77;;;-2.40;99.90;;;;;;4899275;29;20029;-93
2022/01/18 08:22:03;;;;;;;16.33;7.10;;;-2.40;99.90;;;;;;4905940;29;20024;-92
2022/01/18 08:24:29;;;;;;;14.63;7.22;;;-2.40;99.90;;;;;;4900648;29;20025;-92
2022/01/18 08:26:56;;;;;;;14.68;6.13;;;-2.40;99.90;;;;;;4903560;29;20028;-93
2022/01/18 08:29:22;;;;;;;10.52;6.05;;;-2.30;99.90;;;;;;4892371;29;20032;-92
2022/01/18 08:31:48;;;;;;;13.30;6.00;;;-2.30;99.90;;;;;;4898655;29;20025;-94
2022/01/18 08:34:14;;;;;;;12.68;5.97;;;-2.30;99.90;;;;;;4895074;29;20037;-92
2022/01/18 08:36:40;;;;;;;14.95;6.05;;;-2.30;99.90;;;;;;4885456;29;20048;-93
2022/01/18 08:39:07;;;;;;;20.52;6.95;;;-2.20;99.90;;;;;;4895679;29;20044;-93
2022/01/18 08:41:34;;;;;;;17.10;6.75;;;-2.20;99.90;;;;;;4890344;29;20021;-91
2022/01/18 08:44:00;;;;;;;16.38;8.23;;;-2.10;99.90;;;;;;4893547;29;20083;-93
2022/01/18 08:46:26;;;;;;;15.70;7.57;;;-2.10;99.90;;;;;;4890820;29;20056;-94
2022/01/18 08:48:52;;;;;;;15.60;6.93;;;-2.10;99.90;;;;;;4889806;29;20072;-92
2022/01/18 08:51:18;;;;;;;14.70;6.95;;;-2.10;99.90;;;;;;4886671;29;20041;-94
2022/01/18 08:53:48;;;;;;;21.00;8.85;;;-2.00;99.90;;;;;;4878091;29;20109;-93
2022/01/18 08:56:16;;;;;;;17.50;6.78;;;-2.00;99.90;;;;;;4875273;29;20033;-94
2022/01/18 08:58:42;;;;;;;23.00;8.90;;;-1.90;99.90;;;;;;4882811;29;20037;-93
2022/01/18 09:01:08;;;;;;;16.33;7.88;;;-1.80;99.90;;;;;;5017485;23;20552;-93
2022/01/18 09:06:13;;;;;;;16.63;8.20;;;-1.60;99.90;;;;;;5027309;23;20051;-91
2022/01/18 09:08:41;;;;;;;18.25;7.75;;;-1.50;99.90;;;;;;4959447;29;20500;-92
2022/01/18 09:11:10;;;;;;;18.75;7.78;;;-1.30;99.90;;;;;;4942253;28;20039;-94
2022/01/18 09:21:18;;;;;;;23.42;10.10;;;-1.20;99.90;;;;;;4916287;29;20059;-91
2022/01/18 09:23:44;;;;;;;22.60;10.40;;;-1.20;99.90;;;;;;4902736;29;20036;-92
2022/01/18 09:26:13;;;;;;;25.85;9.98;;;-1.10;99.90;;;;;;4903083;29;20079;-92
2022/01/18 09:28:39;;;;;;;21.83;9.93;;;-1.10;99.90;;;;;;4919047;29;20471;-92
2022/01/18 09:31:04;;;;;;;24.42;11.65;;;-1.10;99.90;;;;;;4902302;29;20020;-91
2022/01/18 09:33:30;;;;;;;22.17;9.90;;;-1.10;99.90;;;;;;4916305;29;20051;-92
2022/01/18 09:35:56;;;;;;;32.25;14.23;;;-1.10;99.90;;;;;;4884523;29;20028;-93
2022/01/18 09:38:22;;;;;;;26.58;11.63;;;-1.00;99.90;;;;;;4884667;29;20036;-92
2022/01/18 09:40:49;;;;;;;29.95;12.88;;;-1.00;99.90;;;;;;4884909;29;20503;-92
2022/01/18 09:43:16;;;;;;;30.02;13.38;;;-1.00;99.90;;;;;;4885019;29;20123;-90
2022/01/18 09:45:44;;;;;;;29.63;13.43;;;-0.90;99.90;;;;;;4884172;29;20096;-90
2022/01/18 09:48:12;;;;;;;38.00;15.27;;;-0.90;99.90;;;;;;4884725;29;20054;-92
2022/01/18 09:50:40;;;;;;;25.67;12.90;;;-0.80;99.90;;;;;;4884726;29;20029;-91
2022/01/18 09:53:09;;;;;;;30.02;14.18;;;-0.80;99.90;;;;;;4884531;29;20101;-92
2022/01/18 09:55:36;;;;;;;31.08;15.15;;;-0.70;99.90;;;;;;4920585;29;20040;-91
2022/01/18 09:58:06;;;;;;;34.88;15.35;;;-0.70;99.90;;;;;;4887243;29;20037;-93
2022/01/18 10:00:33;;;;;;;40.28;16.02;;;-0.70;99.90;;;;;;4886627;29;20083;-93
2022/01/18 10:14:20;;;;;;;34.00;15.38;;;-0.40;99.90;;;;;;5467398;23;20055;-92
2022/01/18 10:16:46;;;;;;;40.60;18.23;;;-0.30;99.90;;;;;;4940653;29;20023;-91
2022/01/18 10:19:20;;;;;;;32.13;15.90;;;-0.30;99.90;;;;;;4949936;29;20122;-91
2022/01/18 10:21:50;;;;;;;32.90;15.90;;;-0.30;99.90;;;;;;4940637;29;20027;-92
2022/01/18 10:24:25;;;;;;;38.33;17.50;;;-0.20;99.90;;;;;;4939939;29;20027;-93
2022/01/18 10:26:53;;;;;;;37.95;17.83;;;-0.10;99.90;;;;;;4939849;29;20482;-92
2022/01/18 10:29:27;;;;;;;32.17;16.83;;;0.00;99.90;;;;;;4940240;29;20039;-91
2022/01/18 10:32:12;;;;;;;38.25;17.52;;;0.00;99.90;;;;;;4941737;29;20043;-94
2022/01/18 10:37:29;;;;;;;31.67;16.27;;;0.20;99.90;;;;;;4958277;29;20528;-93
2022/01/18 10:40:10;;;;;;;30.90;13.85;;;0.30;99.90;;;;;;4941039;29;20046;-91
2022/01/18 10:43:01;;;;;;;30.40;15.63;;;0.40;99.90;;;;;;4940927;29;20110;-93
2022/01/18 10:45:43;;;;;;;59.45;23.05;;;0.50;99.90;;;;;;4942580;29;20121;-93
2022/01/18 10:48:43;;;;;;;50.45;20.48;;;0.50;99.90;;;;;;4896266;29;20043;-93
2022/01/18 10:51:51;;;;;;;44.70;20.27;;;0.60;99.90;;;;;;4922354;29;20057;-93
2022/01/18 10:55:00;;;;;;;44.22;17.55;;;0.60;99.90;;;;;;4924848;29;20040;-93
2022/01/18 11:07:10;;;;;;;34.15;13.95;;;0.90;99.90;;;;;;5369897;23;20130;-93
2022/01/18 11:09:36;;;;;;;38.75;14.70;;;1.10;99.90;;;;;;4940907;29;20043;-94
2022/01/18 11:16:25;;;;;;;;;;;;;;;;;;;;;
2022/01/18 11:19:31;;;;;;;24.48;10.52;;;2.70;99.90;;;;;;4874103;29;20503;-95
2022/01/18 11:22:14;;;;;;;24.50;11.23;;;3.40;99.90;;;;;;4865010;29;20487;-94
2022/01/18 11:24:42;;;;;;;22.75;10.15;;;4.20;99.90;;;;;;4865798;29;20052;-95
2022/01/18 11:27:12;;;;;;;27.83;10.90;;;4.70;99.90;;;;;;4868204;29;20045;-96
2022/01/18 11:29:41;;;;;;;25.38;10.15;;;5.20;99.90;;;;;;4873212;29;20424;-95
2022/01/18 11:32:37;;;;;;;19.65;10.38;;;5.60;99.90;;;;;;4863495;29;20061;-96
2022/01/18 11:52:29;;;;;;;17.63;8.48;;;8.60;99.90;;;;;;4976252;23;20054;-93
2022/01/18 12:11:56;;;;;;;12.50;5.70;;;11.40;98.20;;;;;;5392648;23;20335;31
2022/01/18 12:14:34;;;;;;;12.43;5.57;;;11.80;96.60;;;;;;4913819;29;20052;-95
2022/01/18 12:20:20;;;;;;;12.73;5.65;;;12.20;93.30;;;;;;5769056;23;20273;-96
2022/01/18 12:48:22;;;;;;;10.20;5.28;;;15.10;82.50;;;;;;5028732;23;20038;-95
2022/01/18 12:51:00;;;;;;;11.80;6.05;;;15.50;81.50;;;;;;4949331;29;20036;-95
2022/01/18 12:53:39;;;;;;;12.70;5.47;;;15.80;80.00;;;;;;4946622;29;20023;-95
2022/01/18 12:56:09;;;;;;;14.80;6.93;;;16.10;78.90;;;;;;4930443;29;20035;-94
2022/01/18 12:58:45;;;;;;;9.97;3.90;;;16.40;78.00;;;;;;4971192;28;20039;-94
2022/01/18 14:16:23;;;;;;;6.43;2.63;;;15.60;62.20;;;;;;5917751;23;20029;-95
2022/01/18 14:18:58;;;;;;;11.80;2.33;;;15.30;63.10;;;;;;4931106;29;20110;-93
2022/01/18 14:21:37;;;;;;;8.98;3.00;;;15.10;63.80;;;;;;4928049;29;20035;-95
2022/01/18 14:24:22;;;;;;;10.18;3.20;;;14.90;64.40;;;;;;4939785;29;20026;-94
2022/01/18 14:26:54;;;;;;;12.93;4.75;;;14.80;64.90;;;;;;4942433;29;20069;-94
2022/01/18 14:29:21;;;;;;;16.48;6.10;;;14.40;65.40;;;;;;4936592;29;20135;-95
2022/01/18 14:32:00;;;;;;;13.65;3.95;;;14.20;66.30;;;;;;4924483;29;20028;-94
2022/01/18 14:34:30;;;;;;;15.05;4.22;;;14.00;67.00;;;;;;4929023;29;20134;-95
2022/01/18 14:36:56;;;;;;;10.73;3.25;;;13.70;67.50;;;;;;4930426;29;20128;-94
2022/01/18 14:39:22;;;;;;;17.55;3.83;;;13.40;68.20;;;;;;4924607;29;20035;-94
2022/01/18 14:41:54;;;;;;;17.15;4.40;;;13.10;68.60;;;;;;4923903;29;20030;-95
2022/01/18 14:44:35;;;;;;;19.73;4.03;;;12.80;69.40;;;;;;4924971;29;20038;-95
2022/01/18 14:49:46;;;;;;;15.73;3.85;;;12.10;71.10;;;;;;4938892;29;20568;-95
2022/01/18 14:52:12;;;;;;;15.90;4.22;;;11.80;72.10;;;;;;4906987;29;20024;-95
2022/01/18 14:54:40;;;;;;;10.45;3.75;;;11.50;72.90;;;;;;4905430;29;20379;-94
2022/01/18 14:57:09;;;;;;;15.82;4.35;;;11.20;73.80;;;;;;4906592;29;20029;-95
2022/01/18 14:59:35;;;;;;;12.30;4.10;;;10.90;74.60;;;;;;4905460;29;20040;-95
2022/01/18 15:02:00;;;;;;;14.45;3.90;;;10.60;75.30;;;;;;4922475;29;20111;-96
2022/01/18 15:04:26;;;;;;;10.55;3.88;;;10.30;76.00;;;;;;4905797;29;20048;-96
2022/01/18 15:06:54;;;;;;;9.93;3.85;;;10.10;76.80;;;;;;4911859;29;20039;-95
2022/01/18 15:09:20;;;;;;;12.35;4.35;;;10.00;77.40;;;;;;4905006;29;20498;-96
2022/01/18 15:11:45;;;;;;;11.65;4.20;;;9.80;77.90;;;;;;4905036;29;20088;-94
2022/01/18 15:14:11;;;;;;;16.30;4.70;;;9.60;78.30;;;;;;4905233;29;20114;-96
2022/01/18 15:16:40;;;;;;;17.17;4.80;;;9.50;78.80;;;;;;4915213;29;20047;-95
2022/01/18 15:19:08;;;;;;;14.40;4.82;;;9.40;79.40;;;;;;4944210;29;20090;-96
2022/01/18 15:21:33;;;;;;;18.10;4.80;;;9.40;79.80;;;;;;4928026;29;20482;-94
2022/01/18 15:24:04;;;;;;;17.77;4.75;;;9.30;80.00;;;;;;4945386;29;20059;-96
2022/01/18 15:26:30;;;;;;;16.30;6.15;;;9.10;80.50;;;;;;4928203;29;20027;-95
2022/01/18 15:29:01;;;;;;;87.57;9.63;;;9.00;81.10;;;;;;4928777;29;20040;-94
2022/01/18 15:31:27;;;;;;;;;;;8.90;81.60;;;;;;4932924;29;20715;-96
2022/01/18 15:33:55;;;;;;;17.75;5.97;;;8.70;82.20;;;;;;4942183;29;19913;-96
2022/01/18 15:36:21;;;;;;;16.98;6.60;;;8.60;82.60;;;;;;4955654;29;20031;-95
2022/01/18 15:38:47;;;;;;;17.67;6.43;;;8.50;83.10;;;;;;4947412;29;20441;-96
2022/01/18 15:41:14;;;;;;;19.90;8.73;;;8.40;83.70;;;;;;4946422;29;20516;-96
2022/01/18 15:43:43;;;;;;;34.90;11.20;;;8.20;84.20;;;;;;4944823;29;20045;-92
2022/01/18 15:46:10;;;;;;;27.55;8.73;;;8.10;84.70;;;;;;4946877;29;20034;-93
2022/01/18 15:48:37;;;;;;;24.48;8.25;;;7.90;85.30;;;;;;4947593;29;20065;-94
2022/01/18 15:51:03;;;;;;;25.35;10.82;;;7.90;86.80;;;;;;4947422;29;20027;-95
2022/01/18 15:53:29;;;;;;;21.33;8.38;;;7.80;86.50;;;;;;4955576;28;20053;-94
2022/01/18 15:55:55;;;;;;;20.42;8.02;;;7.70;87.10;;;;;;4954520;29;20074;-95
2022/01/18 15:58:21;;;;;;;26.60;9.70;;;7.60;87.80;;;;;;4947092;29;20042;-96
2022/01/18 16:00:48;;;;;;;24.65;9.30;;;7.50;88.50;;;;;;4945505;29;20037;-95
2022/01/18 16:03:16;;;;;;;22.52;8.25;;;7.30;89.20;;;;;;4943850;29;20027;-95
2022/01/18 16:05:43;;;;;;;27.50;8.82;;;7.20;89.90;;;;;;4944221;29;20054;-95
2022/01/18 16:08:10;;;;;;;21.30;7.57;;;7.10;90.20;;;;;;4948153;29;20130;-93
2022/01/18 16:10:37;;;;;;;21.13;8.00;;;7.00;90.50;;;;;;4944688;29;20047;-95
2022/01/18 16:13:03;;;;;;;24.65;9.02;;;6.90;90.80;;;;;;4943056;29;20125;-94
2022/01/18 16:15:29;;;;;;;19.60;8.13;;;6.80;91.10;;;;;;4943671;29;20027;-95
2022/01/18 16:17:58;;;;;;;22.10;8.88;;;6.70;91.50;;;;;;4944699;29;20159;-96
2022/01/18 16:20:24;;;;;;;21.25;8.35;;;6.60;91.80;;;;;;4946839;29;20031;-94
2022/01/18 16:22:52;;;;;;;19.80;9.27;;;6.60;92.20;;;;;;4946056;29;20031;-94
2022/01/18 16:25:21;;;;;;;26.58;8.63;;;6.40;92.60;;;;;;4941494;29;20043;-96
2022/01/18 16:27:56;;;;;;;20.52;9.15;;;6.40;93.00;;;;;;4956267;29;20027;-95
2022/01/18 16:30:24;;;;;;;28.35;9.65;;;6.30;93.40;;;;;;4971269;28;20095;-96
2022/01/18 16:32:54;;;;;;;23.60;9.80;;;6.10;93.90;;;;;;4949279;29;20477;-95
2022/01/18 16:35:20;;;;;;;25.40;9.37;;;6.00;94.60;;;;;;4941541;29;20031;-95
2022/01/18 16:37:50;;;;;;;26.35;9.52;;;6.00;95.10;;;;;;4929135;29;20111;-95
2022/01/18 16:40:16;;;;;;;24.27;8.88;;;5.90;95.60;;;;;;4927478;29;20031;-95
2022/01/18 16:42:44;;;;;;;28.27;12.23;;;5.90;95.90;;;;;;4926141;29;20034;-94
2022/01/18 16:45:12;;;;;;;31.15;11.90;;;5.80;96.30;;;;;;4930713;29;20028;-94
2022/01/18 16:47:38;;;;;;;26.55;10.13;;;5.80;96.80;;;;;;4931638;29;20500;-94
2022/01/18 16:50:06;;;;;;;29.98;10.88;;;5.80;97.20;;;;;;4925224;29;20076;-94
2022/01/18 16:52:32;;;;;;;37.63;14.27;;;5.70;97.80;;;;;;4922098;29;20028;-94
2022/01/18 16:54:58;;;;;;;26.50;10.90;;;5.70;98.20;;;;;;4922394;29;20027;-94
2022/01/18 16:57:24;;;;;;;29.95;11.32;;;5.70;98.80;;;;;;4922238;29;20118;-94
2022/01/18 16:59:49;;;;;;;27.75;10.00;;;5.80;99.40;;;;;;4921699;29;20067;-96
2022/01/18 17:02:15;;;;;;;25.77;10.60;;;5.90;99.90;;;;;;4922666;29;20481;-93
2022/01/18 17:04:41;;;;;;;30.40;10.95;;;5.90;99.90;;;;;;4923398;29;20112;-93
2022/01/18 17:07:07;;;;;;;28.73;10.82;;;6.00;99.90;;;;;;4930460;29;20118;-93